Time,TemperatureF,DewpointF,PressureIn,WindDirection,WindDirectionDegrees,WindSpeedMPH,WindSpeedGustMPH,Humidity,HourlyPrecipIn,Conditions,Clouds,dailyrainin,SoftwareType,DateUTC
2013-10-07 00:00:00,83.6,80.0,29.85,NE,45,5.0,15.0,89,0.00,,,0.00,VWS V14.01,2013-10-07 06:00:00,
2013-10-07 00:30:00,84.1,79.8,29.85,NE,45,7.0,19.0,87,0.00,,,0.00,VWS V14.01,2013-10-07 06:30:00,
2013-10-07 01:00:00,84.3,80.0,29.84,NE,45,7.0,19.0,87,0.00,,,0.00,VWS V14.01,2013-10-07 07:00:00,
2013-10-07 01:30:00,84.2,79.2,29.82,ENE,68,8.0,22.0,85,0.00,,,0.00,VWS V14.01,2013-10-07 07:30:00,
2013-10-07 02:00:00,84.2,79.6,29.81,ENE,68,9.0,19.0,86,0.00,,,0.00,VWS V14.01,2013-10-07 08:00:00,
2013-10-07 02:30:00,84.1,79.5,29.82,ENE,68,8.0,16.0,86,0.00,,,0.00,VWS V14.01,2013-10-07 08:30:00,
2013-10-07 03:00:00,83.9,79.3,29.81,ENE,68,4.0,9.0,86,0.00,,,0.00,VWS V14.01,2013-10-07 09:00:00,
2013-10-07 03:30:00,83.7,79.1,29.83,ENE,68,2.0,7.0,86,0.00,,,0.00,VWS V14.01,2013-10-07 09:30:00,
2013-10-07 04:00:00,83.8,79.9,29.84,ENE,68,1.0,4.0,88,0.00,,,0.00,VWS V14.01,2013-10-07 10:00:00,
2013-10-07 04:30:00,83.6,79.3,29.84,ESE,112,1.0,3.0,87,0.00,,,0.00,VWS V14.01,2013-10-07 10:30:00,
2013-10-07 05:00:00,83.8,79.2,29.85,ESE,112,3.0,6.0,86,0.00,,,0.00,VWS V14.01,2013-10-07 11:00:00,
2013-10-07 05:30:00,84.1,79.1,29.86,SSE,158,2.0,6.0,85,0.00,,,0.00,VWS V14.01,2013-10-07 11:30:00,
2013-10-07 06:00:00,84.3,79.3,29.87,South,180,5.0,10.0,85,0.00,,,0.00,VWS V14.01,2013-10-07 12:00:00,
2013-10-07 06:30:00,80.4,76.9,29.88,WSW,248,7.0,16.0,89,0.00,,,0.00,VWS V14.01,2013-10-07 12:30:00,
2013-10-07 07:00:00,80.6,77.4,29.88,West,270,3.0,16.0,90,0.00,,,0.00,VWS V14.01,2013-10-07 13:00:00,
2013-10-07 07:30:00,80.7,77.5,29.88,WSW,248,2.0,8.0,90,0.00,,,0.00,VWS V14.01,2013-10-07 13:30:00,
2013-10-07 08:00:00,81.1,77.9,29.88,WNW,292,1.0,7.0,90,0.00,,,0.00,VWS V14.01,2013-10-07 14:00:00,
2013-10-07 08:30:00,82.2,77.9,29.89,West,270,1.0,5.0,87,0.00,,,0.00,VWS V14.01,2013-10-07 14:30:00,
2013-10-07 09:00:00,82.8,77.8,29.90,WSW,248,3.0,7.0,85,0.00,,,0.00,VWS V14.01,2013-10-07 15:00:00,
2013-10-07 09:30:00,83.3,77.2,29.91,WSW,248,3.0,8.0,82,0.00,,,0.00,VWS V14.01,2013-10-07 15:30:00,
2013-10-07 10:00:00,85.9,77.5,29.91,WSW,248,2.0,7.0,76,0.00,,,0.00,VWS V14.01,2013-10-07 16:00:00,
2013-10-07 10:30:00,87.9,77.3,29.90,WSW,248,2.0,8.0,71,0.00,,,0.00,VWS V14.01,2013-10-07 16:30:00,
2013-10-07 11:00:00,85.3,77.7,29.89,SSW,202,4.0,8.0,78,0.00,,,0.00,VWS V14.01,2013-10-07 17:00:00,
2013-10-07 11:30:00,86.6,77.7,29.89,WSW,248,4.0,12.0,75,0.00,,,0.00,VWS V14.01,2013-10-07 17:30:00,
2013-10-07 12:00:00,86.7,77.8,29.89,WSW,248,5.0,12.0,75,0.00,,,0.00,VWS V14.01,2013-10-07 18:00:00,
2013-10-07 12:30:00,86.3,78.2,29.88,WSW,248,5.0,13.0,77,0.00,,,0.00,VWS V14.01,2013-10-07 18:30:00,
2013-10-07 13:00:00,87.4,78.9,29.86,WSW,248,4.0,10.0,76,0.00,,,0.00,VWS V14.01,2013-10-07 19:00:00,
2013-10-07 13:30:00,86.5,78.8,29.84,West,270,4.0,11.0,78,0.00,,,0.00,VWS V14.01,2013-10-07 19:30:00,
2013-10-07 14:00:00,86.6,78.1,29.83,WNW,292,4.0,14.0,76,0.00,,,0.00,VWS V14.01,2013-10-07 20:00:00,
2013-10-07 14:30:00,86.3,78.2,29.82,WSW,248,4.0,16.0,77,0.00,,,0.00,VWS V14.01,2013-10-07 20:30:00,
2013-10-07 15:00:00,85.0,78.5,29.81,WSW,248,3.0,10.0,81,0.00,,,0.00,VWS V14.01,2013-10-07 21:00:00,
2013-10-07 15:30:00,84.9,78.4,29.81,WSW,248,4.0,12.0,81,0.00,,,0.00,VWS V14.01,2013-10-07 21:30:00,
2013-10-07 16:00:00,85.6,79.1,29.82,WSW,248,3.0,8.0,81,0.00,,,0.00,VWS V14.01,2013-10-07 22:00:00,
2013-10-07 16:30:00,85.7,79.2,29.83,WSW,248,3.0,8.0,81,0.00,,,0.00,VWS V14.01,2013-10-07 22:30:00,
2013-10-07 17:00:00,83.9,78.9,29.83,WNW,292,2.0,8.0,85,0.00,,,0.00,VWS V14.01,2013-10-07 23:00:00,
2013-10-07 17:30:00,82.8,78.5,29.83,West,270,1.0,7.0,87,0.00,,,0.00,VWS V14.01,2013-10-07 23:30:00,
2013-10-07 18:00:00,82.8,79.2,29.85,West,270,1.0,4.0,89,0.00,,,0.00,VWS V14.01,2013-10-08 00:00:00,
2013-10-07 18:30:00,82.5,78.6,29.86,WSW,248,1.0,5.0,88,0.00,,,0.00,VWS V14.01,2013-10-08 00:30:00,
2013-10-07 19:00:00,82.1,78.9,29.88,West,270,1.0,3.0,90,0.00,,,0.00,VWS V14.01,2013-10-08 01:00:00,
2013-10-07 19:30:00,81.7,78.8,29.89,West,270,0.0,2.0,91,0.00,,,0.00,VWS V14.01,2013-10-08 01:30:00,
2013-10-07 20:00:00,81.6,78.7,29.90,West,270,0.0,2.0,91,0.00,,,0.00,VWS V14.01,2013-10-08 02:00:00,
2013-10-07 20:30:00,82.1,78.9,29.91,West,270,0.0,7.0,90,0.00,,,0.00,VWS V14.01,2013-10-08 02:30:00,
2013-10-07 21:00:00,75.3,71.8,29.92,NW,315,4.0,22.0,89,0.14,,,0.14,VWS V14.01,2013-10-08 03:00:00,
2013-10-07 21:30:00,76.2,73.1,29.92,NNW,338,1.0,3.0,90,0.14,,,0.14,VWS V14.01,2013-10-08 03:30:00,
2013-10-07 22:00:00,75.8,73.6,29.91,NNW,338,1.0,3.0,93,0.14,,,0.14,VWS V14.01,2013-10-08 04:00:00,
2013-10-07 22:30:00,79.7,74.8,29.91,SSW,202,2.0,13.0,85,0.00,,,0.14,VWS V14.01,2013-10-08 04:30:00,
2013-10-07 23:00:00,78.6,74.4,29.90,West,270,1.0,7.0,87,0.00,,,0.14,VWS V14.01,2013-10-08 05:00:00,
2013-10-07 23:30:00,78.0,75.5,29.91,NNW,338,0.0,1.0,92,0.00,,,0.14,VWS V14.01,2013-10-08 05:30:00,